Time;durP1;ratioP1;P1;durP2;ratioP2;P2;SDS_P1;SDS_P2;PMS_P1;PMS_P2;Temp;Humidity;BMP_temperature;BMP_pressure;BME280_temperature;BME280_humidity;BME280_pressure;Samples;Min_cycle;Max_cycle;Signal;HPM_P1;HPM_P2
2022/10/16 00:01:11;;;;;;;1.83;1.60;;;;;;;13.95;100.00;95473.63;6128830;23;20147;-84
2022/10/16 00:03:37;;;;;;;2.40;1.40;;;;;;;13.94;100.00;95474.63;6127853;23;20151;-85
2022/10/16 00:06:03;;;;;;;4.60;2.03;;;;;;;13.97;100.00;95467.28;6126906;23;20238;-84
2022/10/16 00:08:28;;;;;;;1.47;1.37;;;;;;;14.00;100.00;95464.31;6152433;23;20292;-85
2022/10/16 00:10:59;;;;;;;2.20;1.40;;;;;;;13.98;100.00;95462.88;6154015;23;20155;-85
2022/10/16 00:13:24;;;;;;;3.30;1.60;;;;;;;13.97;100.00;95466.47;6127825;23;20159;-84
2022/10/16 00:15:50;;;;;;;2.10;1.33;;;;;;;13.97;100.00;95462.06;6126583;23;20159;-84
2022/10/16 00:18:15;;;;;;;3.50;1.70;;;;;;;13.93;100.00;95454.72;6127630;23;20238;-84
2022/10/16 00:20:41;;;;;;;2.83;1.60;;;;;;;13.94;100.00;95465.00;6128870;23;20448;-85
2022/10/16 00:23:06;;;;;;;3.53;1.20;;;;;;;13.92;100.00;95473.97;6154286;23;20148;-85
2022/10/16 00:25:36;;;;;;;1.80;1.30;;;;;;;14.01;100.00;95475.56;6153203;23;20162;-84
2022/10/16 00:28:01;;;;;;;2.57;1.60;;;;;;;13.96;100.00;95473.50;6128652;23;20159;-84
2022/10/16 00:30:27;;;;;;;1.50;1.40;;;;;;;13.97;100.00;95479.53;6152114;23;20159;-84
2022/10/16 00:32:53;;;;;;;1.83;1.53;;;;;;;14.00;100.00;95471.34;6126453;23;20191;-84
2022/10/16 00:35:18;;;;;;;2.23;1.50;;;;;;;13.99;100.00;95465.31;6127327;23;20769;-84
2022/10/16 00:37:43;;;;;;;2.30;1.30;;;;;;;13.95;100.00;95469.22;6127662;23;20275;-84
2022/10/16 00:40:09;;;;;;;1.70;1.30;;;;;;;14.03;100.00;95465.75;6127616;23;20544;-84
2022/10/16 00:42:34;;;;;;;3.17;1.30;;;;;;;14.06;100.00;95473.28;6127346;23;20557;-84
2022/10/16 00:45:00;;;;;;;2.00;1.70;;;;;;;14.11;100.00;95473.56;6151160;23;20167;-84
2022/10/16 00:47:41;;;;;;;3.83;1.30;;;;;;;14.14;100.00;95478.47;6127967;23;20459;-84
2022/10/16 00:50:09;;;;;;;1.30;1.20;;;;;;;14.15;100.00;95477.47;6127504;23;20174;-84
2022/10/16 00:52:35;;;;;;;1.53;1.10;;;;;;;14.12;100.00;95485.63;6127814;23;20179;-84
2022/10/16 00:55:03;;;;;;;3.23;1.50;;;;;;;14.16;100.00;95481.72;6129568;23;20389;-84
2022/10/16 00:57:28;;;;;;;1.10;1.07;;;;;;;14.22;100.00;95477.59;6131659;23;20545;-84
2022/10/16 00:59:54;;;;;;;2.53;1.60;;;;;;;14.26;100.00;95477.09;6144266;23;20221;-85
2022/10/16 01:02:19;;;;;;;3.87;1.20;;;;;;;14.28;100.00;95462.03;6156453;23;20499;-84
2022/10/16 01:04:52;;;;;;;2.83;1.47;;;;;;;14.28;100.00;95480.31;6155433;23;20155;-83
2022/10/16 01:07:37;;;;;;;1.60;1.47;;;;;;;14.25;100.00;95477.25;6156549;23;20147;-84
2022/10/16 01:10:14;;;;;;;2.70;1.63;;;;;;;14.23;100.00;95484.47;6156471;23;20566;-84
2022/10/16 01:12:55;;;;;;;3.20;1.57;;;;;;;14.23;100.00;95490.50;6156249;23;20232;-84
2022/10/16 01:15:38;;;;;;;3.53;1.80;;;;;;;14.20;100.00;95498.66;6155897;23;20151;-84
2022/10/16 01:18:22;;;;;;;3.67;1.75;;;;;;;14.11;100.00;95497.06;6156203;23;20161;-84
2022/10/16 01:20:53;;;;;;;3.53;1.60;;;;;;;14.20;100.00;95498.66;6156149;23;20233;-85
2022/10/16 01:23:36;;;;;;;2.13;1.30;;;;;;;14.23;100.00;95487.06;6156650;23;20132;-84
2022/10/16 01:26:11;;;;;;;1.63;1.53;;;;;;;14.27;100.00;95488.34;6155799;23;20230;-84
2022/10/16 01:28:41;;;;;;;1.70;1.60;;;;;;;14.25;100.00;95490.31;6157755;23;20201;-85
2022/10/16 01:31:09;;;;;;;1.63;1.52;;;;;;;14.26;100.00;95497.16;6157197;23;20183;-84
2022/10/16 01:33:39;;;;;;;1.97;1.50;;;;;;;14.27;100.00;95480.50;6156245;23;20178;-85
2022/10/16 01:36:13;;;;;;;2.57;1.60;;;;;;;14.34;100.00;95471.00;6155696;23;20159;-85
2022/10/16 01:38:39;;;;;;;2.53;2.00;;;;;;;14.31;100.00;95473.94;6156961;23;20174;-85
2022/10/16 01:41:11;;;;;;;3.03;1.87;;;;;;;14.27;100.00;95475.28;6156354;23;20598;-85
2022/10/16 01:43:41;;;;;;;2.50;1.47;;;;;;;14.24;100.00;95481.66;6156380;23;20151;-84
2022/10/16 01:46:07;;;;;;;1.70;1.50;;;;;;;14.23;100.00;95482.66;6155721;23;20217;-86
2022/10/16 01:48:33;;;;;;;1.77;1.63;;;;;;;14.16;100.00;95471.25;6156674;23;20250;-84
2022/10/16 01:51:15;;;;;;;2.03;1.67;;;;;;;14.21;100.00;95475.97;6156363;23;20163;-84
2022/10/16 01:53:42;;;;;;;2.77;1.50;;;;;;;14.24;100.00;95480.84;6156349;23;20249;-84
2022/10/16 01:56:09;;;;;;;1.73;1.63;;;;;;;14.20;100.00;95477.75;6131008;23;20233;-85
2022/10/16 01:58:38;;;;;;;5.13;1.87;;;;;;;14.18;100.00;95477.13;6155870;23;20589;-85
2022/10/16 02:01:04;;;;;;;1.93;1.50;;;;;;;14.13;100.00;95477.66;6131475;23;20151;-84
2022/10/16 02:03:31;;;;;;;2.50;1.43;;;;;;;14.16;100.00;95477.28;6131863;23;20225;-85
2022/10/16 02:05:58;;;;;;;2.25;1.73;;;;;;;14.21;100.00;95465.50;6129663;23;20855;-84
2022/10/16 02:08:27;;;;;;;2.83;1.60;;;;;;;14.25;100.00;95467.63;6130365;23;20175;-84
2022/10/16 02:10:55;;;;;;;3.10;1.50;;;;;;;14.27;100.00;95467.44;6130197;23;20621;-84
2022/10/16 02:13:26;;;;;;;2.97;1.50;;;;;;;14.30;100.00;95473.13;6130138;23;20194;-84
2022/10/16 02:15:51;;;;;;;4.50;1.45;;;;;;;14.24;100.00;95468.59;6129310;23;20593;-84
2022/10/16 02:18:17;;;;;;;3.83;1.57;;;;;;;14.25;100.00;95478.06;6129495;23;20183;-84
2022/10/16 02:20:51;;;;;;;2.80;1.30;;;;;;;14.18;100.00;95479.72;6129626;23;20640;-85
2022/10/16 02:23:28;;;;;;;3.30;1.50;;;;;;;14.13;100.00;95475.03;6129810;23;20147;-84
2022/10/16 02:25:54;;;;;;;5.90;1.87;;;;;;;14.09;100.00;95478.97;6129284;23;20178;-84
2022/10/16 02:28:23;;;;;;;3.40;1.40;;;;;;;14.08;100.00;95487.78;6129844;23;20183;-84
2022/10/16 02:30:52;;;;;;;1.57;1.40;;;;;;;14.07;100.00;95487.97;6129805;23;20156;-84
2022/10/16 02:33:19;;;;;;;4.33;1.90;;;;;;;14.05;100.00;95489.94;6129460;23;20190;-85
2022/10/16 02:35:46;;;;;;;1.73;1.63;;;;;;;14.06;100.00;95481.91;6128888;23;20306;-84
2022/10/16 02:38:12;;;;;;;3.17;1.50;;;;;;;14.00;100.00;95489.63;6129220;23;20186;-84
2022/10/16 02:40:38;;;;;;;2.40;1.70;;;;;;;13.96;100.00;95488.31;6129005;23;20154;-85
2022/10/16 02:43:04;;;;;;;4.17;1.70;;;;;;;13.92;100.00;95493.06;6129757;23;20170;-84
2022/10/16 02:45:30;;;;;;;2.03;1.30;;;;;;;14.00;100.00;95492.22;6128547;23;20163;-84
2022/10/16 02:47:55;;;;;;;3.27;1.63;;;;;;;13.96;100.00;95490.91;6105223;23;20780;-83
2022/10/16 02:50:21;;;;;;;1.57;1.47;;;;;;;13.99;100.00;95490.59;6129486;23;20159;-83
2022/10/16 02:52:47;;;;;;;3.13;1.73;;;;;;;13.93;100.00;95483.44;6128726;23;20179;-83
2022/10/16 02:55:12;;;;;;;2.00;1.53;;;;;;;13.91;100.00;95488.03;6153705;23;20163;-83
2022/10/16 02:57:40;;;;;;;2.90;1.50;;;;;;;13.91;100.00;95485.41;6155588;23;20151;-83
2022/10/16 03:00:06;;;;;;;1.70;1.60;;;;;;;13.89;100.00;95491.63;6144430;23;20644;-82
2022/10/16 03:02:34;;;;;;;1.83;1.60;;;;;;;13.91;100.00;95488.03;6153986;23;20159;-83
2022/10/16 03:04:59;;;;;;;3.43;1.40;;;;;;;13.82;100.00;95490.66;6153695;23;20187;-83
2022/10/16 03:07:25;;;;;;;6.10;1.50;;;;;;;13.82;100.00;95490.66;6129388;23;20167;-83
2022/10/16 03:09:50;;;;;;;1.60;1.20;;;;;;;13.83;100.00;95491.47;6153988;23;20183;-84
2022/10/16 03:12:15;;;;;;;3.63;1.33;;;;;;;13.78;100.00;95491.16;6153911;23;20183;-85
2022/10/16 03:14:40;;;;;;;2.23;1.50;;;;;;;13.81;100.00;95499.47;6153093;23;20163;-83
2022/10/16 03:17:06;;;;;;;3.27;1.53;;;;;;;13.88;100.00;95497.81;6128734;23;20628;-83
2022/10/16 03:19:31;;;;;;;5.67;1.60;;;;;;;13.84;100.00;95488.69;6153541;23;20179;-83
2022/10/16 03:21:57;;;;;;;2.80;1.80;;;;;;;13.87;100.00;95488.38;6153876;23;20162;-83
2022/10/16 03:24:22;;;;;;;2.93;1.33;;;;;;;13.90;100.00;95487.22;6153790;23;20156;-83
2022/10/16 03:26:47;;;;;;;2.63;1.57;;;;;;;13.86;100.00;95486.72;6153053;23;20163;-82
2022/10/16 03:29:13;;;;;;;3.00;1.77;;;;;;;13.84;100.00;95488.69;6153628;23;20175;-83
2022/10/16 03:31:38;;;;;;;2.77;1.50;;;;;;;13.85;100.00;95498.13;6153890;23;20191;-82
2022/10/16 03:34:03;;;;;;;1.60;1.50;;;;;;;13.86;100.00;95494.53;6154160;23;20147;-83
2022/10/16 03:36:29;;;;;;;3.20;1.57;;;;;;;13.87;100.00;95493.59;6153248;23;20255;-87
2022/10/16 03:38:54;;;;;;;2.00;1.80;;;;;;;13.84;100.00;95493.91;6154098;23;20182;-85
2022/10/16 03:41:19;;;;;;;4.40;1.80;;;;;;;13.88;100.00;95487.38;6153544;23;20246;-85
2022/10/16 03:43:45;;;;;;;3.60;1.50;;;;;;;13.87;100.00;95484.94;6153244;23;20174;-86
2022/10/16 03:46:10;;;;;;;2.80;2.00;;;;;;;13.87;100.00;95488.38;6152292;23;20155;-85
2022/10/16 03:48:35;;;;;;;7.57;1.50;;;;;;;13.84;100.00;95488.69;6153450;23;20179;-85
2022/10/16 03:51:00;;;;;;;1.63;1.37;;;;;;;13.81;100.00;95499.47;6153522;23;20160;-85
2022/10/16 03:53:26;;;;;;;3.07;1.20;;;;;;;13.81;100.00;95498.66;6153345;23;20179;-84
2022/10/16 03:55:51;;;;;;;2.37;1.40;;;;;;;13.87;100.00;95495.38;6177582;23;20621;-85
2022/10/16 03:58:16;;;;;;;2.57;1.50;;;;;;;13.82;100.00;95485.44;6154846;23;20254;-85
2022/10/16 04:00:43;;;;;;;2.50;1.37;;;;;;;13.86;100.00;95484.09;6153074;23;20174;-85
2022/10/16 04:03:08;;;;;;;2.37;1.47;;;;;;;13.91;100.00;95483.63;6153438;23;20155;-85
2022/10/16 04:05:34;;;;;;;3.47;1.30;;;;;;;13.87;100.00;95480.53;6152912;23;20616;-85
2022/10/16 04:07:59;;;;;;;2.00;1.40;;;;;;;13.89;100.00;95481.19;6154846;23;20151;-85
2022/10/16 04:10:24;;;;;;;2.83;1.50;;;;;;;13.88;100.00;95479.56;6153220;23;20163;-85
2022/10/16 04:12:50;;;;;;;1.97;1.37;;;;;;;13.90;100.00;95484.59;6153155;23;20175;-85
2022/10/16 04:15:15;;;;;;;2.97;1.60;;;;;;;13.90;100.00;95476.75;6152457;23;20170;-84
2022/10/16 04:17:40;;;;;;;1.50;1.40;;;;;;;13.79;100.00;95482.38;6153529;23;20230;-86
2022/10/16 04:20:06;;;;;;;1.60;1.50;;;;;;;13.86;100.00;95488.50;6153585;23;20661;-85
2022/10/16 04:22:31;;;;;;;2.23;1.50;;;;;;;13.86;100.00;95497.16;6153520;23;20157;-85
2022/10/16 04:24:56;;;;;;;3.10;1.53;;;;;;;13.87;100.00;95498.00;6152929;23;20202;-84
2022/10/16 04:27:22;;;;;;;2.23;1.37;;;;;;;13.94;100.00;95508.56;6154624;23;20174;-85
2022/10/16 04:29:47;;;;;;;4.23;1.50;;;;;;;13.91;100.00;95498.47;6152715;23;20514;-84
2022/10/16 04:32:12;;;;;;;3.17;1.70;;;;;;;13.93;100.00;95504.31;6152981;23;20568;-84
2022/10/16 04:34:39;;;;;;;1.53;1.43;;;;;;;13.87;100.00;95508.44;6152118;23;20163;-84
2022/10/16 04:37:05;;;;;;;1.57;1.47;;;;;;;13.89;100.00;95515.13;6152610;23;20183;-84
2022/10/16 04:39:30;;;;;;;4.03;1.50;;;;;;;13.85;100.00;95516.41;6153031;23;20199;-85
2022/10/16 04:41:55;;;;;;;2.73;1.50;;;;;;;13.86;100.00;95519.84;6152727;23;20155;-84
2022/10/16 04:44:20;;;;;;;2.80;1.30;;;;;;;13.88;100.00;95520.50;6152866;23;20158;-84
2022/10/16 04:46:46;;;;;;;5.50;1.60;;;;;;;13.82;100.00;95539.44;6151770;23;20182;-85
2022/10/16 04:49:11;;;;;;;1.50;1.30;;;;;;;13.84;100.00;95537.47;6152595;23;20167;-84
2022/10/16 04:51:36;;;;;;;1.43;1.30;;;;;;;13.84;100.00;95534.84;6152572;23;20593;-84
2022/10/16 04:54:02;;;;;;;3.40;1.80;;;;;;;13.77;100.00;95533.91;6152464;23;20166;-84
2022/10/16 04:56:27;;;;;;;3.73;1.73;;;;;;;13.83;100.00;95533.22;6152779;23;20159;-84
2022/10/16 04:58:52;;;;;;;2.60;1.63;;;;;;;13.81;100.00;95525.56;6152083;23;20191;-85
2022/10/16 05:01:17;;;;;;;4.20;1.40;;;;;;;13.75;100.00;95521.03;6128060;23;20549;-84
2022/10/16 05:03:43;;;;;;;2.63;1.60;;;;;;;13.73;100.00;95517.78;6128180;23;20245;-84
2022/10/16 05:06:08;;;;;;;2.20;1.60;;;;;;;13.71;100.00;95519.75;6127101;23;20155;-84
2022/10/16 05:08:33;;;;;;;5.10;2.03;;;;;;;13.73;100.00;95527.41;6128004;23;20621;-85
2022/10/16 05:10:59;;;;;;;1.53;1.40;;;;;;;13.70;100.00;95528.56;6128217;23;20167;-85
2022/10/16 05:13:24;;;;;;;3.40;1.70;;;;;;;13.67;100.00;95525.44;6128500;23;20671;-84
2022/10/16 05:15:49;;;;;;;1.77;1.60;;;;;;;13.72;100.00;95529.19;6128024;23;20152;-85
2022/10/16 05:18:16;;;;;;;1.37;1.27;;;;;;;13.70;100.00;95535.56;6128801;23;20657;-85
2022/10/16 05:20:41;;;;;;;2.13;1.47;;;;;;;13.79;100.00;95530.16;6103984;23;20166;-84
2022/10/16 05:23:07;;;;;;;1.83;1.50;;;;;;;13.76;100.00;95538.31;6128533;23;20144;-85
2022/10/16 05:25:32;;;;;;;2.70;1.37;;;;;;;13.82;100.00;95527.19;6152512;23;20225;-85
2022/10/16 05:27:58;;;;;;;3.57;1.50;;;;;;;13.79;100.00;95538.00;6128362;23;20167;-86
2022/10/16 05:30:23;;;;;;;1.57;1.47;;;;;;;13.89;100.00;95525.56;6129486;23;20163;-85
2022/10/16 05:32:49;;;;;;;4.23;1.60;;;;;;;13.97;100.00;95521.28;6128607;23;20185;-85
2022/10/16 05:35:16;;;;;;;1.73;1.40;;;;;;;13.98;100.00;95538.56;6128370;23;20159;-84
2022/10/16 05:37:41;;;;;;;2.00;1.50;;;;;;;13.92;100.00;95549.69;6128534;23;20601;-85
2022/10/16 05:40:07;;;;;;;4.60;1.70;;;;;;;13.94;100.00;95552.94;6128327;23;20175;-85
2022/10/16 05:42:32;;;;;;;2.23;1.43;;;;;;;14.00;100.00;95541.81;6130357;23;20221;-85
2022/10/16 05:44:58;;;;;;;3.87;1.63;;;;;;;14.02;100.00;95547.69;6129418;23;20159;-85
2022/10/16 05:47:23;;;;;;;3.00;1.70;;;;;;;13.98;100.00;95552.44;6154692;23;20163;-85
2022/10/16 05:49:48;;;;;;;3.03;1.27;;;;;;;13.98;100.00;95556.84;6130098;23;20182;-84
2022/10/16 05:52:13;;;;;;;5.10;1.60;;;;;;;13.97;100.00;95552.63;6129776;23;20267;-84
2022/10/16 05:54:39;;;;;;;1.63;1.53;;;;;;;14.02;100.00;95537.25;6129493;23;20155;-84
2022/10/16 05:57:05;;;;;;;2.20;1.47;;;;;;;14.00;100.00;95540.03;6129674;23;20262;-83
2022/10/16 05:59:31;;;;;;;1.43;1.30;;;;;;;13.98;100.00;95555.06;6138116;23;20190;-83
2022/10/16 06:01:56;;;;;;;3.80;1.23;;;;;;;13.99;100.00;95553.25;6131496;23;20156;-84
2022/10/16 06:04:21;;;;;;;1.97;1.53;;;;;;;14.00;100.00;95570.53;6155643;23;20231;-83
2022/10/16 06:06:47;;;;;;;3.60;1.63;;;;;;;13.97;100.00;95565.66;6155007;23;20241;-83
2022/10/16 06:09:12;;;;;;;1.65;1.55;;;;;;;14.00;100.00;95560.09;6131555;23;20179;-84
2022/10/16 06:18:48;;;;;;;3.27;1.40;;;;;;;14.21;100.00;95560.34;6153481;23;20198;-86
2022/10/16 06:21:31;;;;;;;;;;;;;;;;;;;;;
2022/10/16 06:28:41;;;;;;;2.90;1.70;;;;;;;14.35;100.00;95575.31;6043835;23;20180;-86
2022/10/16 06:32:07;;;;;;;1.40;1.30;;;;;;;14.45;100.00;95588.19;6067015;23;20169;-86
2022/10/16 06:35:31;;;;;;;4.27;1.40;;;;;;;14.43;100.00;95583.13;5960380;24;20298;-86
2022/10/16 06:38:02;;;;;;;2.00;1.53;;;;;;;14.43;100.00;95580.50;5924165;24;20172;-81
2022/10/16 06:40:27;;;;;;;2.58;1.70;;;;;;;14.51;100.00;95589.31;5902914;24;20251;-84
2022/10/16 06:42:55;;;;;;;2.38;1.40;;;;;;;14.56;100.00;95587.00;5879455;24;20184;-86
2022/10/16 06:45:20;;;;;;;2.20;1.38;;;;;;;14.65;100.00;95588.59;5902207;24;20568;-83
2022/10/16 06:47:45;;;;;;;4.07;1.47;;;;;;;14.71;100.00;95587.91;5903867;24;20172;-84
2022/10/16 06:50:11;;;;;;;2.47;1.50;;;;;;;14.68;100.00;95596.91;5881521;24;20188;-83
2022/10/16 06:52:36;;;;;;;1.70;1.48;;;;;;;14.67;100.00;95594.47;5881324;24;20203;-83
2022/10/16 06:55:02;;;;;;;3.83;1.60;;;;;;;14.64;100.00;95600.03;5865506;24;20188;-83
2022/10/16 06:57:28;;;;;;;1.90;1.20;;;;;;;14.61;100.00;95610.84;5921934;24;20260;-82
2022/10/16 06:59:53;;;;;;;2.47;1.40;;;;;;;14.69;100.00;95619.44;5922856;24;20243;-84
2022/10/16 07:02:19;;;;;;;2.15;1.50;;;;;;;14.66;100.00;95621.56;5899596;24;20169;-83
2022/10/16 07:04:44;;;;;;;1.92;1.40;;;;;;;14.68;100.00;95630.91;5976006;23;20167;-84
2022/10/16 07:07:10;;;;;;;1.77;1.47;;;;;;;14.65;100.00;95625.16;6011052;23;20214;-83
2022/10/16 07:09:35;;;;;;;1.50;1.40;;;;;;;14.71;100.00;95635.78;6037448;23;20297;-83
2022/10/16 07:12:01;;;;;;;4.80;1.60;;;;;;;14.67;100.00;95631.06;6041135;23;20191;-84
2022/10/16 07:14:26;;;;;;;1.70;1.60;;;;;;;14.68;100.00;95630.06;6097318;23;20156;-83
2022/10/16 07:16:51;;;;;;;1.67;1.57;;;;;;;14.73;100.00;95630.38;6152078;23;20250;-83
2022/10/16 07:19:17;;;;;;;3.60;2.47;;;;;;;14.74;100.00;95632.81;6154362;23;20191;-84
2022/10/16 07:21:43;;;;;;;2.43;2.00;;;;;;;14.80;100.00;95631.31;6179783;23;20169;-83
2022/10/16 07:24:14;;;;;;;1.65;1.55;;;;;;;14.88;100.00;95638.31;6153534;23;20634;-83
2022/10/16 07:26:40;;;;;;;4.40;1.80;;;;;;;15.00;100.00;95642.16;6128239;23;20625;-83
2022/10/16 07:29:12;;;;;;;5.75;1.70;;;;;;;15.11;99.32;95643.56;6152629;23;20182;-82
2022/10/16 07:31:38;;;;;;;3.60;1.70;;;;;;;15.28;97.86;95655.53;6153498;23;20210;-82
2022/10/16 07:34:03;;;;;;;1.73;1.40;;;;;;;15.42;97.40;95652.19;6149845;23;20167;-83
2022/10/16 07:36:28;;;;;;;2.63;1.45;;;;;;;15.56;96.11;95654.03;6149772;23;20155;-83
2022/10/16 07:38:54;;;;;;;7.28;1.80;;;;;;;15.65;93.70;95661.88;6149790;23;20187;-83
2022/10/16 07:41:19;;;;;;;2.10;1.77;;;;;;;15.85;93.83;95660.38;6124792;23;20485;-83
2022/10/16 07:43:46;;;;;;;1.95;1.75;;;;;;;16.10;92.96;95666.22;6149971;23;20155;-83
2022/10/16 07:46:11;;;;;;;2.67;1.60;;;;;;;16.20;91.50;95671.19;6149282;23;20183;-82
2022/10/16 07:48:37;;;;;;;2.83;1.90;;;;;;;16.43;90.93;95671.91;6149373;23;20634;-81
2022/10/16 07:51:04;;;;;;;3.30;1.55;;;;;;;16.72;88.88;95680.81;6144685;23;20163;-81
2022/10/16 07:53:29;;;;;;;3.30;1.80;;;;;;;16.90;88.07;95682.06;6147996;23;20254;-81
2022/10/16 07:56:03;;;;;;;2.40;2.20;;;;;;;16.88;87.63;95689.28;6146840;23;20535;-79
2022/10/16 07:58:29;;;;;;;2.90;1.63;;;;;;;16.81;88.53;95683.16;6147895;23;20190;-82
2022/10/16 08:00:55;;;;;;;2.10;1.83;;;;;;;17.06;87.44;95674.97;6151081;23;20493;-82
2022/10/16 08:03:21;;;;;;;5.55;1.83;;;;;;;17.17;85.55;95671.88;6152192;23;20155;-81
2022/10/16 08:05:46;;;;;;;1.80;1.70;;;;;;;17.15;86.44;95674.69;6150184;23;20155;-81
2022/10/16 08:08:14;;;;;;;2.22;1.75;;;;;;;17.10;87.14;95692.78;6152468;23;20250;-81
2022/10/16 08:10:39;;;;;;;3.00;2.17;;;;;;;17.01;85.22;95698.31;6127135;23;20162;-82
2022/10/16 08:13:04;;;;;;;3.45;2.50;;;;;;;16.99;85.97;95695.88;6152611;23;20183;-82
2022/10/16 08:15:29;;;;;;;3.90;2.40;;;;;;;17.06;84.69;95695.97;6152168;23;20494;-82
2022/10/16 08:17:56;;;;;;;3.95;2.35;;;;;;;16.91;84.94;95698.59;6153188;23;20151;-82
2022/10/16 08:20:22;;;;;;;5.75;2.30;;;;;;;16.95;84.25;95700.66;6127833;23;20573;-81
2022/10/16 08:22:47;;;;;;;6.75;2.97;;;;;;;17.05;84.94;95697.78;6152745;23;20230;-81
2022/10/16 08:25:12;;;;;;;9.07;3.60;;;;;;;17.25;83.79;95688.31;6151904;23;20163;-82
2022/10/16 08:27:38;;;;;;;3.58;2.80;;;;;;;17.17;83.36;95695.47;6153270;23;20152;-80
2022/10/16 08:30:03;;;;;;;14.43;7.75;;;;;;;17.34;83.57;95693.44;6153747;23;20183;-84
2022/10/16 08:32:29;;;;;;;7.22;3.20;;;;;;;17.26;83.68;95702.25;6177912;23;20176;-86
2022/10/16 08:34:54;;;;;;;2.58;1.70;;;;;;;17.41;83.29;95708.28;6152735;23;20214;-84
2022/10/16 08:37:19;;;;;;;4.07;1.40;;;;;;;17.38;83.79;95695.50;6152772;23;20178;-81
2022/10/16 08:39:44;;;;;;;2.65;1.63;;;;;;;17.42;82.81;95701.22;6153313;23;20183;-82
2022/10/16 08:42:11;;;;;;;4.43;1.40;;;;;;;17.55;82.60;95699.50;6151891;23;20165;-81
2022/10/16 08:44:58;;;;;;;3.85;1.45;;;;;;;17.76;81.80;95698.75;6150756;23;20167;-82
2022/10/16 08:47:38;;;;;;;3.70;1.42;;;;;;;17.75;82.06;95707.59;6152448;23;20648;-81
2022/10/16 08:50:12;;;;;;;3.03;1.40;;;;;;;17.58;80.22;95710.63;6127917;23;20548;-82
2022/10/16 08:52:43;;;;;;;1.40;1.30;;;;;;;17.74;80.76;95708.63;6153800;23;20174;-81
2022/10/16 08:55:26;;;;;;;2.53;1.42;;;;;;;17.75;80.81;95706.78;6128300;23;20166;-81
2022/10/16 08:57:51;;;;;;;3.50;1.38;;;;;;;17.61;80.23;95703.22;6156919;23;20143;-83
2022/10/16 09:00:17;;;;;;;5.90;1.30;;;;;;;17.79;80.71;95701.00;6160426;23;20187;-82
2022/10/16 09:03:12;;;;;;;1.83;1.08;;;;;;;17.79;79.43;95705.44;6159966;23;20493;-82
2022/10/16 09:05:49;;;;;;;1.90;1.30;;;;;;;17.88;79.45;95711.38;6158436;23;20140;-82
2022/10/16 09:08:27;;;;;;;1.98;1.17;;;;;;;17.89;79.06;95716.44;6159554;23;20259;-83
2022/10/16 09:11:14;;;;;;;2.55;1.40;;;;;;;17.73;78.94;95722.75;6161606;23;20155;-81
2022/10/16 09:14:25;;;;;;;1.50;1.40;;;;;;;17.94;78.96;95721.13;6161533;23;20175;-82
2022/10/16 09:17:00;;;;;;;2.65;1.35;;;;;;;17.83;80.19;95717.19;6072469;23;20241;-81
2022/10/16 09:19:36;;;;;;;1.60;1.50;;;;;;;18.04;78.86;95719.81;6073024;23;20200;-82
2022/10/16 09:22:14;;;;;;;2.72;1.52;;;;;;;18.12;77.04;95726.75;6048691;23;20153;-82
2022/10/16 09:24:39;;;;;;;2.75;1.60;;;;;;;18.30;77.91;95729.72;6047043;23;20153;-82
2022/10/16 09:27:04;;;;;;;2.40;1.50;;;;;;;18.39;78.06;95731.19;6071203;23;20168;-82
2022/10/16 09:29:29;;;;;;;1.75;1.40;;;;;;;18.66;76.18;95745.38;6073203;23;20189;-81
2022/10/16 09:31:57;;;;;;;2.85;1.30;;;;;;;18.80;75.37;95746.25;6070550;23;20197;-81
2022/10/16 09:34:36;;;;;;;1.75;1.20;;;;;;;18.71;76.71;95752.66;6047333;23;20187;-81
2022/10/16 09:37:09;;;;;;;1.55;1.40;;;;;;;18.86;75.61;95755.19;6072491;23;20164;-82
2022/10/16 09:39:50;;;;;;;3.03;1.52;;;;;;;19.06;75.57;95764.00;6073241;23;20184;-82
2022/10/16 09:42:20;;;;;;;4.03;1.65;;;;;;;19.22;76.48;95763.69;6076149;23;20168;-81
2022/10/16 09:44:49;;;;;;;1.70;1.40;;;;;;;19.44;73.81;95776.75;6073926;23;20301;-82
2022/10/16 09:47:18;;;;;;;2.03;1.42;;;;;;;19.34;73.52;95776.28;6074856;23;20171;-82
2022/10/16 09:50:05;;;;;;;3.05;1.42;;;;;;;19.72;74.65;95771.41;6073755;23;20707;-81
2022/10/16 09:52:31;;;;;;;2.42;1.35;;;;;;;19.85;71.78;95771.41;6088819;23;20241;-81
2022/10/16 09:55:23;;;;;;;2.67;1.63;;;;;;;19.91;72.37;95775.88;6161735;23;20160;-81
2022/10/16 09:57:53;;;;;;;2.15;1.13;;;;;;;19.97;71.66;95772.47;6160360;23;20173;-82
2022/10/16 10:00:19;;;;;;;5.18;1.50;;;;;;;20.12;71.30;95776.72;6164335;23;20167;-82
2022/10/16 10:02:45;;;;;;;2.22;1.35;;;;;;;20.08;71.29;95784.22;6163502;23;20281;-83
2022/10/16 10:05:25;;;;;;;2.55;1.25;;;;;;;19.96;71.93;95775.28;6164114;23;20187;-83
2022/10/16 10:07:56;;;;;;;4.57;1.60;;;;;;;19.76;71.86;95781.31;6167505;23;20159;-83
2022/10/16 10:10:24;;;;;;;2.10;1.50;;;;;;;19.90;72.67;95784.81;6161093;23;20195;-82
2022/10/16 10:12:49;;;;;;;4.05;1.45;;;;;;;20.06;71.96;95795.00;6160154;23;20218;-81
2022/10/16 10:15:21;;;;;;;1.70;1.23;;;;;;;19.77;72.45;95796.13;6160248;23;20225;-82
2022/10/16 10:17:48;;;;;;;1.48;1.20;;;;;;;20.06;72.48;95796.81;6162239;23;20160;-83
2022/10/16 10:20:35;;;;;;;1.98;1.35;;;;;;;19.83;74.28;95799.78;6160990;23;20266;-82
2022/10/16 10:23:01;;;;;;;1.85;1.52;;;;;;;19.96;73.77;95799.81;6162562;23;20163;-83
2022/10/16 10:25:36;;;;;;;1.40;1.30;;;;;;;20.20;71.97;95797.63;6159106;23;20230;-82
2022/10/16 10:28:23;;;;;;;3.13;1.20;;;;;;;20.27;72.18;95795.81;6160505;23;20147;-81
2022/10/16 10:31:14;;;;;;;1.95;1.30;;;;;;;20.22;71.94;95799.03;6161112;23;20181;-81
2022/10/16 10:33:44;;;;;;;1.30;1.20;;;;;;;20.20;71.87;95800.25;6161187;23;20179;-83
2022/10/16 10:36:30;;;;;;;1.52;1.33;;;;;;;20.20;71.93;95803.72;6160128;23;20158;-82
2022/10/16 10:38:57;;;;;;;2.88;1.60;;;;;;;20.44;71.40;95801.53;6160397;23;20168;-82
2022/10/16 10:42:00;;;;;;;3.65;2.42;;;;;;;20.69;68.81;95796.47;6160892;23;20159;-82
2022/10/16 10:44:53;;;;;;;1.55;1.33;;;;;;;20.72;68.99;95801.31;6160974;23;20498;-82
2022/10/16 10:47:36;;;;;;;2.40;1.40;;;;;;;20.57;68.59;95799.69;6160645;23;20966;-83
2022/10/16 10:50:26;;;;;;;3.38;1.13;;;;;;;20.48;66.82;95797.47;6160766;23;20175;-83
2022/10/16 10:53:03;;;;;;;2.00;1.13;;;;;;;20.45;67.28;95801.31;6160422;23;20171;-83
2022/10/16 10:55:40;;;;;;;6.85;1.80;;;;;;;20.42;68.32;95804.34;6134649;23;20155;-83
2022/10/16 10:58:19;;;;;;;2.65;1.33;;;;;;;20.33;68.71;95803.72;6160592;23;20676;-83
2022/10/16 11:00:57;;;;;;;1.20;1.10;;;;;;;20.34;68.55;95801.91;6157994;23;20621;-82
2022/10/16 11:03:52;;;;;;;3.92;1.80;;;;;;;20.50;68.45;95798.09;6156981;23;20190;-82
2022/10/16 11:06:24;;;;;;;2.17;1.60;;;;;;;20.31;70.75;95807.56;6161480;23;20155;-83
2022/10/16 11:08:59;;;;;;;5.85;1.80;;;;;;;20.12;70.83;95806.53;6160537;23;20207;-82
2022/10/16 11:11:30;;;;;;;1.63;1.52;;;;;;;20.58;69.81;95801.34;6160071;23;20655;-81
2022/10/16 11:14:05;;;;;;;5.22;1.83;;;;;;;20.49;70.20;95797.25;6155669;23;20167;-82
2022/10/16 11:16:37;;;;;;;1.30;1.17;;;;;;;20.95;67.43;95811.47;6155011;23;20169;-82
2022/10/16 11:19:12;;;;;;;1.65;1.33;;;;;;;21.24;67.34;95808.34;6160116;23;20241;-82
2022/10/16 11:21:44;;;;;;;2.17;1.45;;;;;;;21.28;67.23;95811.38;6159137;23;20241;-83
2022/10/16 11:24:18;;;;;;;3.03;1.60;;;;;;;21.38;65.39;95819.69;6162596;23;20156;-82
2022/10/16 11:26:46;;;;;;;2.53;1.52;;;;;;;21.47;66.35;95807.91;6131824;23;20163;-82
2022/10/16 11:29:17;;;;;;;2.15;1.10;;;;;;;21.49;67.19;95811.94;6156908;23;20179;-82
2022/10/16 11:32:17;;;;;;;3.33;1.50;;;;;;;21.49;66.36;95811.13;6156895;23;20193;-83
2022/10/16 11:34:47;;;;;;;5.90;1.40;;;;;;;21.45;65.73;95809.91;6155289;23;20155;-82
2022/10/16 11:37:17;;;;;;;1.60;1.50;;;;;;;21.46;66.98;95806.25;6156392;23;20205;-82
2022/10/16 11:39:43;;;;;;;3.15;1.65;;;;;;;21.21;67.07;95804.28;6157167;23;20175;-83
2022/10/16 11:42:13;;;;;;;2.05;1.60;;;;;;;21.21;66.72;95806.94;6158742;23;20539;-82
2022/10/16 11:44:51;;;;;;;3.70;1.73;;;;;;;21.08;66.89;95795.56;6158305;23;20209;-81
2022/10/16 11:47:36;;;;;;;2.38;2.17;;;;;;;21.24;67.36;95796.97;6133107;23;20200;-83
2022/10/16 11:50:27;;;;;;;1.90;1.65;;;;;;;20.76;68.40;95790.16;6157111;23;20271;-83
2022/10/16 11:53:15;;;;;;;2.08;1.60;;;;;;;20.80;67.25;95798.47;6158115;23;20168;-83